Time;durP1;ratioP1;P1;durP2;ratioP2;P2;SDS_P1;SDS_P2;PMS_P1;PMS_P2;Temp;Humidity;BMP_temperature;BMP_pressure;BME280_temperature;BME280_humidity;BME280_pressure;Samples;Min_cycle;Max_cycle;Signal;HPM_P1;HPM_P2
2023/02/15 00:01:53;;;;;;;40.88;22.80;;;4.10;99.90;;;;;;5026924;28;20503;-61
2023/02/15 00:04:21;;;;;;;37.05;19.95;;;4.10;99.90;;;;;;5026282;28;20046;-60
2023/02/15 00:06:48;;;;;;;47.20;22.92;;;4.10;99.90;;;;;;5025404;28;20056;-60
2023/02/15 00:09:15;;;;;;;45.17;21.95;;;4.00;99.90;;;;;;5027345;28;20052;-60
2023/02/15 00:11:49;;;;;;;38.58;20.50;;;4.00;99.90;;;;;;5026895;28;20049;-61
2023/02/15 00:14:21;;;;;;;38.90;21.20;;;4.00;99.90;;;;;;5026702;28;20055;-60
2023/02/15 00:16:48;;;;;;;34.83;20.63;;;4.00;99.90;;;;;;5026888;28;20049;-60
2023/02/15 00:19:16;;;;;;;36.65;21.70;;;4.00;99.90;;;;;;5026927;28;20049;-60
2023/02/15 00:21:45;;;;;;;40.53;22.17;;;4.10;99.90;;;;;;5026488;28;20073;-60
2023/02/15 00:24:13;;;;;;;38.70;21.10;;;3.90;99.90;;;;;;5009657;28;20049;-60
2023/02/15 00:26:40;;;;;;;38.25;22.67;;;3.90;99.90;;;;;;5026479;28;20064;-60
2023/02/15 00:29:07;;;;;;;37.15;20.63;;;3.90;99.90;;;;;;5026834;28;20061;-60
2023/02/15 00:31:34;;;;;;;40.28;22.33;;;4.30;99.90;;;;;;5026090;28;20057;-60
2023/02/15 00:34:22;;;;;;;44.17;20.35;;;4.00;99.90;;;;;;5026771;28;20068;-60
2023/02/15 00:36:49;;;;;;;38.67;20.63;;;4.00;99.90;;;;;;5027116;28;20052;-60
2023/02/15 00:39:16;;;;;;;44.05;21.40;;;4.00;99.90;;;;;;5027215;28;20055;-60
2023/02/15 00:41:43;;;;;;;37.85;20.92;;;4.10;99.90;;;;;;5026841;28;20037;-60
2023/02/15 00:44:10;;;;;;;38.55;20.65;;;4.10;99.90;;;;;;5026863;28;20124;-60
2023/02/15 00:46:37;;;;;;;43.67;22.23;;;4.10;99.90;;;;;;5027026;28;20061;-60
2023/02/15 00:49:03;;;;;;;40.03;21.17;;;4.20;99.90;;;;;;5009802;28;20076;-60
2023/02/15 00:51:31;;;;;;;40.65;21.52;;;4.30;99.90;;;;;;5026765;28;20042;-60
2023/02/15 00:53:57;;;;;;;42.42;19.90;;;4.40;99.90;;;;;;5026838;28;20055;-60
2023/02/15 00:56:24;;;;;;;40.03;22.63;;;4.40;99.90;;;;;;5026784;28;20054;-60
2023/02/15 00:58:51;;;;;;;45.03;24.77;;;4.50;99.90;;;;;;5026934;28;20049;-60
2023/02/15 01:01:19;;;;;;;42.33;22.63;;;4.60;99.90;;;;;;5026978;28;20091;-60
2023/02/15 01:03:46;;;;;;;43.78;23.77;;;4.70;99.90;;;;;;5026824;28;20053;-60
2023/02/15 01:06:14;;;;;;;43.88;24.45;;;4.70;99.90;;;;;;5027140;28;20049;-59
2023/02/15 01:08:41;;;;;;;42.60;22.45;;;4.60;99.90;;;;;;5026664;28;20053;-61
2023/02/15 01:11:09;;;;;;;41.45;22.83;;;4.60;99.90;;;;;;5027037;28;20085;-61
2023/02/15 01:13:36;;;;;;;39.28;23.00;;;4.70;99.90;;;;;;5009240;28;20470;-61
2023/02/15 01:16:03;;;;;;;40.53;22.70;;;4.70;99.90;;;;;;5027272;28;20412;-60
2023/02/15 01:18:31;;;;;;;43.38;24.60;;;4.80;99.90;;;;;;5013126;28;20049;-59
2023/02/15 01:20:58;;;;;;;45.40;24.55;;;4.90;99.90;;;;;;5012657;28;20041;-60
2023/02/15 01:23:25;;;;;;;45.80;23.83;;;4.90;99.90;;;;;;5030017;28;20049;-61
2023/02/15 01:25:51;;;;;;;48.63;24.15;;;4.90;99.90;;;;;;5029952;28;20056;-61
2023/02/15 01:28:18;;;;;;;43.67;24.83;;;5.00;99.90;;;;;;5030067;28;20042;-61
2023/02/15 01:30:45;;;;;;;45.67;25.50;;;5.10;99.90;;;;;;5030169;28;20051;-60
2023/02/15 01:33:17;;;;;;;43.72;24.95;;;5.10;99.90;;;;;;5029907;28;20045;-61
2023/02/15 01:35:45;;;;;;;41.63;25.23;;;4.80;99.90;;;;;;5029934;28;20046;-60
2023/02/15 01:38:13;;;;;;;45.22;24.95;;;4.60;99.90;;;;;;5029932;28;20053;-60
2023/02/15 01:40:40;;;;;;;45.80;24.58;;;4.50;99.90;;;;;;5029879;28;20495;-60
2023/02/15 01:43:10;;;;;;;43.60;24.08;;;4.60;99.90;;;;;;5029778;28;20143;-60
2023/02/15 01:45:37;;;;;;;45.60;24.45;;;4.70;99.90;;;;;;5029686;28;20049;-60
2023/02/15 01:48:20;;;;;;;37.92;23.70;;;4.70;99.90;;;;;;5029777;28;20063;-60
2023/02/15 01:50:58;;;;;;;41.75;24.20;;;4.80;99.90;;;;;;4998203;28;20057;-60
2023/02/15 01:53:29;;;;;;;48.50;25.70;;;4.70;99.90;;;;;;5029281;28;20148;-60
2023/02/15 01:55:58;;;;;;;39.85;23.08;;;4.70;99.90;;;;;;4654552;28;10000442;-61
2023/02/15 01:58:27;;;;;;;39.67;22.95;;;4.80;99.90;;;;;;4976849;28;20307;-61
2023/02/15 02:00:54;;;;;;;40.90;22.58;;;4.80;99.90;;;;;;5029308;28;20045;-61
2023/02/15 02:03:46;;;;;;;41.35;22.77;;;4.80;99.90;;;;;;5011862;28;20045;-59
2023/02/15 02:06:12;;;;;;;47.75;23.85;;;4.70;99.90;;;;;;5013918;28;20049;-60
2023/02/15 02:08:41;;;;;;;42.78;23.50;;;4.80;99.90;;;;;;5029660;28;20384;-61
2023/02/15 02:11:11;;;;;;;40.95;23.20;;;4.70;99.90;;;;;;5011680;28;20291;-61
2023/02/15 02:13:42;;;;;;;40.75;23.38;;;4.70;99.90;;;;;;5029370;28;20303;-60
2023/02/15 02:16:17;;;;;;;45.22;23.83;;;4.60;99.90;;;;;;5028342;28;20484;-60
2023/02/15 02:18:58;;;;;;;47.08;24.55;;;4.70;99.90;;;;;;5012645;28;20053;-61
2023/02/15 02:21:55;;;;;;;40.28;23.80;;;4.60;99.90;;;;;;4995545;28;20514;-60
2023/02/15 02:24:40;;;;;;;45.72;23.52;;;4.60;99.90;;;;;;5028566;28;20048;-60
2023/02/15 02:27:09;;;;;;;;;;;4.60;99.90;;;;;;5001801;28;20049;-60
2023/02/15 02:30:04;;;;;;;43.92;21.33;;;4.60;99.90;;;;;;5028936;28;19921;-60
2023/02/15 02:32:43;;;;;;;;;;;4.60;99.90;;;;;;5021230;28;20060;-60
2023/02/15 02:35:22;;;;;;;46.15;22.92;;;4.60;99.90;;;;;;5028357;28;19939;-60
2023/02/15 02:38:12;;;;;;;43.80;23.08;;;4.50;99.90;;;;;;5011152;28;20055;-60
2023/02/15 02:41:09;;;;;;;45.75;24.42;;;4.50;99.90;;;;;;5028157;28;20045;-60
2023/02/15 02:43:42;;;;;;;46.35;25.48;;;4.40;99.90;;;;;;5028812;28;20060;-60
2023/02/15 02:46:20;;;;;;;48.33;23.90;;;4.50;99.90;;;;;;5028386;28;20503;-60
2023/02/15 02:48:48;;;;;;;46.60;26.25;;;4.50;99.90;;;;;;5011226;28;20060;-60
2023/02/15 02:51:21;;;;;;;47.03;25.20;;;4.50;99.90;;;;;;4993959;28;20050;-60
2023/02/15 02:53:53;;;;;;;40.17;23.23;;;4.40;99.90;;;;;;5027653;28;20140;-60
2023/02/15 02:56:21;;;;;;;42.72;23.45;;;4.40;99.90;;;;;;4994286;28;20045;-59
2023/02/15 02:58:58;;;;;;;41.63;23.92;;;4.70;99.90;;;;;;5028621;28;20140;-60
2023/02/15 03:01:37;;;;;;;44.22;24.08;;;4.40;99.90;;;;;;5011342;28;20076;-60
2023/02/15 03:04:07;;;;;;;47.67;24.90;;;4.40;99.90;;;;;;4995703;28;20616;-60
2023/02/15 03:06:42;;;;;;;43.45;24.02;;;4.30;99.90;;;;;;4994361;28;20046;-60
2023/02/15 03:09:21;;;;;;;45.90;26.20;;;4.40;99.90;;;;;;4991144;28;20390;-60
2023/02/15 03:11:48;;;;;;;48.17;24.95;;;4.50;99.90;;;;;;5011397;28;20049;-60
2023/02/15 03:14:15;;;;;;;41.90;22.20;;;4.50;99.90;;;;;;4994284;28;20049;-60
2023/02/15 03:16:42;;;;;;;39.50;24.20;;;4.30;99.90;;;;;;4994023;28;20048;-60
2023/02/15 03:19:22;;;;;;;46.40;24.85;;;4.30;99.90;;;;;;5010840;28;20060;-59
2023/02/15 03:22:09;;;;;;;44.78;25.27;;;4.30;99.90;;;;;;4994089;28;20056;-60
2023/02/15 03:24:40;;;;;;;48.22;24.73;;;4.10;99.90;;;;;;5027444;28;20124;-60
2023/02/15 03:27:10;;;;;;;47.65;25.02;;;4.10;99.90;;;;;;5027832;28;20140;-60
2023/02/15 03:29:37;;;;;;;45.45;24.83;;;4.00;99.90;;;;;;4994346;28;20049;-60
2023/02/15 03:32:05;;;;;;;46.83;26.25;;;4.00;99.90;;;;;;5009939;28;20064;-60
2023/02/15 03:34:32;;;;;;;49.63;24.75;;;4.00;99.90;;;;;;4994282;28;20436;-60
2023/02/15 03:37:11;;;;;;;55.20;25.25;;;4.00;99.90;;;;;;5010286;28;20049;-60
2023/02/15 03:41:09;;;;;;;47.83;25.45;;;4.00;99.90;;;;;;5001083;28;20042;-60
2023/02/15 03:42:49;;;;;;;43.95;26.00;;;3.90;99.90;;;;;;5027488;28;20076;-59
2023/02/15 03:45:17;;;;;;;40.50;22.92;;;3.80;99.90;;;;;;4990639;28;20046;-59
2023/02/15 03:47:46;;;;;;;47.92;25.05;;;3.80;99.90;;;;;;4993783;28;20512;-59
2023/02/15 03:53:07;;;;;;;54.85;28.63;;;3.80;99.90;;;;;;4991324;28;20057;-60
2023/02/15 03:55:34;;;;;;;53.80;28.83;;;3.80;99.90;;;;;;4990047;28;20048;-60
2023/02/15 04:03:39;;;;;;;52.70;29.15;;;4.00;99.90;;;;;;5004350;28;20050;-60
2023/02/15 04:06:06;;;;;;;61.15;31.65;;;4.10;99.90;;;;;;5002251;28;20058;-60
2023/02/15 04:11:18;;;;;;;61.60;32.65;;;4.10;99.90;;;;;;5006538;28;20163;-60
2023/02/15 04:13:45;;;;;;;61.08;30.90;;;4.10;99.90;;;;;;5007509;28;20050;-60
2023/02/15 04:16:11;;;;;;;57.97;31.50;;;4.10;99.90;;;;;;5007695;28;20156;-59
2023/02/15 04:26:57;;;;;;;66.35;32.35;;;4.00;99.90;;;;;;5007697;28;20064;-59
2023/02/15 04:29:24;;;;;;;61.92;33.45;;;4.00;99.90;;;;;;5007506;28;20058;-60
2023/02/15 04:31:51;;;;;;;62.90;33.50;;;4.10;99.90;;;;;;5007786;28;20068;-60
2023/02/15 04:34:18;;;;;;;66.32;35.80;;;4.10;99.90;;;;;;5007408;28;20054;-60
2023/02/15 04:36:45;;;;;;;62.00;32.78;;;4.20;99.90;;;;;;5006370;28;20041;-60
2023/02/15 04:39:15;;;;;;;69.38;35.30;;;4.20;99.90;;;;;;5007556;28;20141;-60
2023/02/15 04:41:41;;;;;;;69.75;36.50;;;4.20;99.90;;;;;;5007498;28;20507;-59
2023/02/15 04:44:08;;;;;;;72.40;35.05;;;4.30;99.90;;;;;;5005488;28;20100;-60
2023/02/15 04:46:35;;;;;;;70.70;36.05;;;4.30;99.90;;;;;;5007811;28;20052;-60
2023/02/15 04:49:02;;;;;;;72.40;34.65;;;4.30;99.90;;;;;;5007267;28;20045;-60
2023/02/15 04:51:29;;;;;;;62.40;33.03;;;4.40;99.90;;;;;;5008024;28;20056;-60
2023/02/15 04:53:56;;;;;;;64.20;33.78;;;4.30;99.90;;;;;;5030518;28;20416;-60
2023/02/15 04:56:23;;;;;;;77.03;37.42;;;4.30;99.90;;;;;;5030326;28;20485;-60
2023/02/15 04:58:50;;;;;;;75.97;37.28;;;4.40;99.90;;;;;;5012590;28;20053;-60
2023/02/15 05:01:17;;;;;;;71.07;35.10;;;4.40;99.90;;;;;;5029872;28;20060;-60
2023/02/15 05:03:44;;;;;;;80.68;37.00;;;4.50;99.90;;;;;;5030784;28;20050;-58
2023/02/15 05:06:10;;;;;;;67.40;34.88;;;4.50;99.90;;;;;;5030442;28;20518;-60
2023/02/15 05:08:37;;;;;;;65.25;35.70;;;4.50;99.90;;;;;;5030132;28;20059;-59
2023/02/15 05:11:04;;;;;;;67.25;33.90;;;4.50;99.90;;;;;;5030186;28;20047;-60
2023/02/15 05:13:30;;;;;;;66.53;36.67;;;4.60;99.90;;;;;;5030495;28;20049;-60
2023/02/15 05:15:57;;;;;;;69.50;36.92;;;4.60;99.90;;;;;;5030068;28;20045;-60
2023/02/15 05:18:24;;;;;;;75.45;38.53;;;4.70;99.90;;;;;;5030731;28;20137;-60
2023/02/15 05:20:51;;;;;;;68.32;35.85;;;4.70;99.90;;;;;;5030326;28;20408;-60
2023/02/15 05:23:17;;;;;;;75.55;37.00;;;4.70;99.90;;;;;;5030471;28;20053;-60
2023/02/15 05:28:33;;;;;;;75.40;35.38;;;4.70;99.90;;;;;;5030511;28;20049;-59
2023/02/15 05:31:06;;;;;;;60.20;32.45;;;4.80;99.90;;;;;;5012499;28;20041;-59
2023/02/15 05:33:34;;;;;;;68.00;34.78;;;4.80;99.90;;;;;;5030008;28;20064;-59
2023/02/15 05:36:01;;;;;;;68.60;35.88;;;4.80;99.90;;;;;;5029624;28;20095;-57
2023/02/15 05:38:28;;;;;;;67.50;33.85;;;4.90;99.90;;;;;;5030256;28;20056;-59
2023/02/15 05:40:55;;;;;;;69.57;36.42;;;4.90;99.90;;;;;;5029804;28;20049;-59
2023/02/15 05:43:22;;;;;;;76.15;37.30;;;4.90;99.90;;;;;;5012395;28;20049;-59
2023/02/15 05:45:50;;;;;;;66.10;34.63;;;5.00;99.90;;;;;;5029770;28;20068;-60
2023/02/15 05:48:17;;;;;;;69.80;37.28;;;5.00;99.90;;;;;;5029910;28;20563;-59
2023/02/15 05:50:43;;;;;;;69.72;36.35;;;5.00;99.90;;;;;;5029871;28;20060;-60
2023/02/15 05:53:10;;;;;;;68.20;36.08;;;5.00;99.90;;;;;;5029330;28;20057;-60
2023/02/15 05:55:38;;;;;;;70.30;37.53;;;5.10;99.90;;;;;;5029446;28;20060;-59
2023/02/15 05:58:05;;;;;;;67.43;36.30;;;5.00;99.90;;;;;;5029444;28;20132;-59
2023/02/15 06:00:32;;;;;;;71.63;36.90;;;5.20;99.90;;;;;;5029938;28;20487;-60
2023/02/15 06:02:59;;;;;;;63.60;34.63;;;5.10;99.90;;;;;;5028946;28;20539;-60
2023/02/15 06:05:26;;;;;;;68.38;34.05;;;5.20;99.90;;;;;;5028864;28;20045;-59
2023/02/15 06:07:53;;;;;;;65.60;34.17;;;5.20;99.90;;;;;;5029478;28;20102;-60
2023/02/15 06:10:19;;;;;;;64.25;35.78;;;5.20;99.90;;;;;;5029679;28;20045;-60
2023/02/15 06:12:46;;;;;;;60.65;34.67;;;5.20;99.90;;;;;;5029385;28;20053;-60
2023/02/15 06:15:13;;;;;;;68.38;37.13;;;5.10;99.90;;;;;;5029383;28;20551;-61
2023/02/15 06:17:42;;;;;;;73.32;35.65;;;5.20;99.90;;;;;;5029458;28;20655;-62
2023/02/15 06:20:09;;;;;;;67.32;35.08;;;5.20;99.90;;;;;;5029417;28;20084;-60
2023/02/15 06:22:36;;;;;;;69.05;36.20;;;5.20;99.90;;;;;;5029411;28;20060;-60
2023/02/15 06:25:03;;;;;;;63.15;33.38;;;5.20;99.90;;;;;;5011132;28;20053;-60
2023/02/15 06:27:30;;;;;;;62.22;34.08;;;5.20;99.90;;;;;;5028947;28;20404;-60
2023/02/15 06:29:57;;;;;;;77.53;38.55;;;5.20;99.90;;;;;;5029185;28;20138;-60
2023/02/15 06:32:23;;;;;;;69.60;34.97;;;5.20;99.90;;;;;;5028836;28;20049;-59
2023/02/15 06:34:50;;;;;;;62.28;32.33;;;5.20;99.90;;;;;;5025229;28;20174;-59
2023/02/15 06:37:17;;;;;;;67.55;35.67;;;5.30;99.90;;;;;;5011679;28;20050;-59
2023/02/15 06:39:44;;;;;;;73.72;36.40;;;5.40;99.90;;;;;;5028775;28;20049;-59
2023/02/15 06:42:11;;;;;;;65.47;35.08;;;5.40;99.90;;;;;;5029213;28;20045;-59
2023/02/15 06:44:37;;;;;;;70.97;36.10;;;5.50;99.90;;;;;;5028460;28;20049;-59
2023/02/15 06:47:04;;;;;;;65.00;33.70;;;5.50;99.90;;;;;;5028872;28;20050;-59
2023/02/15 06:49:31;;;;;;;66.22;37.58;;;5.60;99.90;;;;;;5029071;28;20049;-59
2023/02/15 06:51:57;;;;;;;62.15;35.08;;;5.60;99.90;;;;;;5028819;28;20054;-60
2023/02/15 06:54:24;;;;;;;56.28;32.70;;;5.60;99.90;;;;;;5028294;28;20140;-60
2023/02/15 06:56:51;;;;;;;60.60;35.42;;;5.60;99.90;;;;;;5028521;28;20069;-59
2023/02/15 06:59:18;;;;;;;66.30;35.55;;;5.60;99.90;;;;;;5028611;28;20123;-59
2023/02/15 07:01:45;;;;;;;64.38;34.58;;;5.60;99.90;;;;;;5028653;28;20462;-60
2023/02/15 07:04:12;;;;;;;59.78;32.97;;;5.70;99.90;;;;;;5028391;28;20387;-60
2023/02/15 07:06:38;;;;;;;65.45;33.83;;;5.70;99.90;;;;;;5028408;28;20053;-60
2023/02/15 07:09:05;;;;;;;65.53;35.40;;;5.70;99.90;;;;;;5028284;28;20551;-61
2023/02/15 07:14:17;;;;;;;67.55;37.60;;;5.60;99.90;;;;;;5026825;28;20144;-61
2023/02/15 07:16:44;;;;;;;67.75;35.72;;;5.60;99.90;;;;;;5010595;28;20045;-60
2023/02/15 07:19:11;;;;;;;72.45;36.17;;;5.60;99.90;;;;;;5028148;28;20042;-60
2023/02/15 07:21:37;;;;;;;66.82;33.33;;;5.60;99.90;;;;;;5027953;28;20103;-60
2023/02/15 07:24:04;;;;;;;63.22;34.00;;;5.60;99.90;;;;;;5027697;28;20045;-60
2023/02/15 07:26:32;;;;;;;61.63;34.65;;;5.60;99.90;;;;;;5009562;28;20045;-60
2023/02/15 07:28:58;;;;;;;70.60;37.08;;;5.50;99.90;;;;;;5027845;28;20079;-60
2023/02/15 07:31:25;;;;;;;58.47;33.28;;;5.50;99.90;;;;;;5027863;28;20056;-61
2023/02/15 07:33:52;;;;;;;66.13;34.80;;;5.50;99.90;;;;;;5027859;28;20049;-60
2023/02/15 07:36:18;;;;;;;61.00;34.28;;;5.40;99.90;;;;;;5027241;28;20586;-61
2023/02/15 07:38:45;;;;;;;69.22;36.67;;;5.50;99.90;;;;;;5026615;28;20055;-60
2023/02/15 07:41:13;;;;;;;61.28;34.90;;;5.50;99.90;;;;;;5027211;28;20046;-60
2023/02/15 07:43:41;;;;;;;68.20;34.50;;;5.50;99.90;;;;;;5027581;28;20532;-60
2023/02/15 07:46:11;;;;;;;63.97;34.17;;;5.60;99.90;;;;;;5026995;28;20049;-60
2023/02/15 07:48:38;;;;;;;63.13;33.45;;;5.60;99.90;;;;;;5027752;28;20065;-61
2023/02/15 07:51:06;;;;;;;58.35;33.90;;;5.60;99.90;;;;;;5027435;28;20041;-61
2023/02/15 07:53:33;;;;;;;63.30;34.55;;;5.70;99.90;;;;;;5027098;28;20093;-61
2023/02/15 07:56:01;;;;;;;62.67;34.75;;;5.70;99.90;;;;;;5026375;28;20045;-61
2023/02/15 08:01:14;;;;;;;64.07;35.05;;;5.70;99.90;;;;;;5026854;28;20523;-60
2023/02/15 08:03:41;;;;;;;65.18;35.58;;;5.80;99.90;;;;;;5027500;28;20049;-60
2023/02/15 08:06:08;;;;;;;62.55;33.60;;;5.90;99.90;;;;;;5026107;28;20052;-60
2023/02/15 08:08:35;;;;;;;67.20;34.30;;;5.90;99.90;;;;;;5027449;28;20512;-59
2023/02/15 08:11:25;;;;;;;61.72;34.20;;;6.10;99.90;;;;;;5027140;28;20129;-59
2023/02/15 08:13:54;;;;;;;59.40;32.47;;;6.20;99.90;;;;;;4653194;28;10000059;-60
2023/02/15 08:16:24;;;;;;;56.55;30.25;;;6.30;99.90;;;;;;4993015;28;20574;-59
2023/02/15 08:18:52;;;;;;;58.53;33.33;;;6.30;99.90;;;;;;5024410;28;20057;-62
2023/02/15 08:21:19;;;;;;;48.25;28.77;;;6.40;99.90;;;;;;4990633;28;20133;-59
2023/02/15 08:23:47;;;;;;;53.47;31.10;;;6.50;99.90;;;;;;5023883;28;20072;-59
2023/02/15 08:26:14;;;;;;;49.53;29.35;;;6.60;99.90;;;;;;5025998;28;20049;-59
2023/02/15 08:28:41;;;;;;;52.05;28.67;;;6.70;99.90;;;;;;5029171;28;20129;-59
2023/02/15 08:31:09;;;;;;;45.85;27.90;;;6.80;99.90;;;;;;5013668;28;20475;-59
2023/02/15 08:33:37;;;;;;;45.53;25.88;;;6.90;99.90;;;;;;5030692;28;20065;-59
2023/02/15 08:36:08;;;;;;;45.30;25.80;;;6.90;99.90;;;;;;5030145;28;20049;-59
2023/02/15 08:38:35;;;;;;;47.70;24.92;;;7.00;99.90;;;;;;5030471;28;20046;-60
2023/02/15 08:41:24;;;;;;;46.70;24.92;;;7.10;99.90;;;;;;5031108;28;20399;-59
2023/02/15 08:43:56;;;;;;;50.67;27.48;;;7.10;99.90;;;;;;5030600;28;20046;-59
2023/02/15 08:46:24;;;;;;;46.50;26.10;;;7.20;99.90;;;;;;5031038;28;20042;-59
2023/02/15 08:48:51;;;;;;;48.92;26.80;;;7.30;99.90;;;;;;5030763;28;20046;-60
2023/02/15 08:51:22;;;;;;;45.17;26.08;;;7.40;99.90;;;;;;5031153;28;20045;-59
2023/02/15 08:53:51;;;;;;;46.33;26.25;;;7.50;99.90;;;;;;5029365;28;20049;-59
2023/02/15 08:56:19;;;;;;;46.25;25.88;;;7.50;99.90;;;;;;4989107;28;20050;-59
2023/02/15 08:58:46;;;;;;;41.08;23.98;;;7.60;99.90;;;;;;5007428;28;20049;-59
2023/02/15 09:01:18;;;;;;;45.97;26.20;;;7.70;99.90;;;;;;5030586;28;20077;-59
2023/02/15 09:03:45;;;;;;;44.45;25.88;;;7.80;99.90;;;;;;5012521;28;20050;-59
2023/02/15 09:06:12;;;;;;;45.90;26.45;;;7.90;99.90;;;;;;5030078;28;20060;-60
2023/02/15 09:08:39;;;;;;;41.88;25.67;;;8.10;99.90;;;;;;5029934;28;20132;-59
2023/02/15 09:11:09;;;;;;;45.80;26.40;;;8.20;99.90;;;;;;5030091;28;20173;-60
2023/02/15 09:13:37;;;;;;;45.00;26.30;;;8.40;99.90;;;;;;5029525;28;20049;-60
2023/02/15 09:16:05;;;;;;;45.22;25.33;;;8.70;99.90;;;;;;5029244;28;20053;-60
2023/02/15 09:18:35;;;;;;;47.72;26.75;;;8.90;99.90;;;;;;5012109;28;20052;-60
2023/02/15 09:21:09;;;;;;;41.95;25.15;;;9.20;99.90;;;;;;5029916;28;20489;-60
2023/02/15 09:23:36;;;;;;;47.88;26.40;;;9.40;99.90;;;;;;5028683;28;20045;-59
2023/02/15 09:26:05;;;;;;;44.08;25.17;;;9.60;99.90;;;;;;5027437;28;20091;-59
2023/02/15 09:28:32;;;;;;;37.55;24.40;;;9.70;99.90;;;;;;5028143;28;20042;-60
2023/02/15 09:31:32;;;;;;;36.40;23.33;;;9.70;99.90;;;;;;5028697;28;20141;-60
2023/02/15 09:34:01;;;;;;;37.08;22.58;;;9.60;99.90;;;;;;5010468;28;20132;-59
2023/02/15 09:36:30;;;;;;;34.60;22.10;;;9.50;99.90;;;;;;5019330;28;20154;-59
2023/02/15 09:38:57;;;;;;;36.67;20.60;;;9.60;99.90;;;;;;5027174;28;20053;-60
2023/02/15 09:41:49;;;;;;;34.42;20.42;;;9.70;99.90;;;;;;5008240;28;20133;-58
2023/02/15 09:44:37;;;;;;;36.47;21.13;;;9.60;99.90;;;;;;5025848;28;20099;-61
2023/02/15 09:47:35;;;;;;;33.67;20.48;;;9.70;99.90;;;;;;5026730;28;20521;-59
2023/02/15 09:50:20;;;;;;;33.50;19.60;;;9.70;99.90;;;;;;5008662;28;20053;-59
2023/02/15 09:52:59;;;;;;;31.17;19.08;;;9.80;99.90;;;;;;5027248;28;20161;-58
2023/02/15 09:55:49;;;;;;;29.42;17.73;;;9.80;99.90;;;;;;5028110;28;20057;-59
2023/02/15 09:58:25;;;;;;;33.70;20.65;;;9.90;99.90;;;;;;5012034;28;20055;-61
2023/02/15 10:01:13;;;;;;;29.85;19.08;;;10.00;99.90;;;;;;5028023;28;20061;-58
2023/02/15 10:04:18;;;;;;;37.10;19.15;;;10.00;99.90;;;;;;5019836;28;20115;-58
2023/02/15 10:06:48;;;;;;;31.73;18.35;;;10.00;99.90;;;;;;4969483;28;20115;-60
2023/02/15 10:09:22;;;;;;;29.80;18.70;;;10.10;99.90;;;;;;5028737;28;20052;-60
2023/02/15 10:11:55;;;;;;;44.47;20.10;;;10.10;99.90;;;;;;5028354;28;20108;-59
2023/02/15 10:14:46;;;;;;;32.78;19.05;;;10.20;99.90;;;;;;5011378;28;20049;-58
2023/02/15 10:17:41;;;;;;;28.05;18.15;;;10.20;99.90;;;;;;5025258;28;20054;-60
2023/02/15 10:20:45;;;;;;;34.67;18.75;;;10.30;99.90;;;;;;5027024;28;20213;-59
2023/02/15 10:23:56;;;;;;;27.73;17.07;;;10.30;99.90;;;;;;5020649;28;20283;-60
2023/02/15 10:26:31;;;;;;;31.27;17.52;;;10.40;99.90;;;;;;4928634;29;20149;-59
2023/02/15 10:29:09;;;;;;;27.00;17.65;;;10.40;99.90;;;;;;4700179;29;10000619;-59
2023/02/15 10:31:52;;;;;;;28.45;17.27;;;10.50;99.90;;;;;;4973598;28;20253;-59
2023/02/15 10:34:35;;;;;;;32.08;17.10;;;10.40;99.90;;;;;;5028207;28;20068;-60
2023/02/15 10:37:10;;;;;;;36.38;17.30;;;10.50;99.90;;;;;;5010744;28;20049;-60
2023/02/15 10:39:43;;;;;;;32.88;19.20;;;10.50;99.90;;;;;;5010770;28;20096;-60
2023/02/15 10:42:42;;;;;;;27.75;16.23;;;10.50;99.90;;;;;;5028156;28;20103;-60
2023/02/15 10:45:21;;;;;;;30.38;15.55;;;10.50;99.90;;;;;;4981316;28;20153;-60
2023/02/15 10:48:06;;;;;;;31.08;17.25;;;10.50;99.90;;;;;;5008352;28;20497;-60
2023/02/15 10:50:42;;;;;;;28.27;17.30;;;10.50;99.90;;;;;;5028298;28;20057;-60
2023/02/15 10:53:30;;;;;;;32.28;17.58;;;10.50;99.90;;;;;;5027433;28;20057;-60
2023/02/15 10:56:12;;;;;;;36.60;16.10;;;10.50;99.90;;;;;;5027705;28;20060;-60
2023/02/15 10:59:16;;;;;;;30.17;15.65;;;10.60;99.90;;;;;;5024636;28;20512;-60
2023/02/15 11:01:55;;;;;;;26.35;15.60;;;10.60;99.90;;;;;;5013452;28;20675;-59
2023/02/15 11:04:40;;;;;;;28.00;16.40;;;10.60;99.90;;;;;;5018290;28;20049;-59
2023/02/15 11:07:17;;;;;;;25.98;15.55;;;10.60;99.90;;;;;;5027797;28;20045;-60
2023/02/15 11:09:48;;;;;;;36.97;16.33;;;10.70;99.90;;;;;;5027363;28;20076;-60
2023/02/15 11:12:18;;;;;;;25.60;15.70;;;10.70;99.90;;;;;;4993737;28;20049;-61
2023/02/15 11:14:55;;;;;;;27.77;16.23;;;10.80;99.90;;;;;;4993975;28;20085;-59
2023/02/15 11:17:39;;;;;;;32.60;16.67;;;10.90;99.90;;;;;;4993837;28;20082;-59
2023/02/15 11:20:17;;;;;;;27.23;15.00;;;11.00;99.90;;;;;;4995659;28;20505;-59
2023/02/15 11:22:47;;;;;;;30.17;15.60;;;11.00;99.90;;;;;;5027382;28;20563;-59
2023/02/15 11:25:40;;;;;;;25.50;16.52;;;11.00;99.90;;;;;;5027609;28;20051;-59
2023/02/15 11:28:14;;;;;;;23.80;14.05;;;11.20;99.90;;;;;;5005267;28;20068;-60
2023/02/15 11:30:44;;;;;;;29.67;16.05;;;11.20;99.90;;;;;;4994308;28;20045;-59
2023/02/15 11:33:33;;;;;;;33.60;14.32;;;11.40;99.90;;;;;;5010203;28;20052;-59
2023/02/15 11:36:17;;;;;;;24.25;13.85;;;11.50;99.90;;;;;;5009957;28;20427;-60
2023/02/15 11:38:44;;;;;;;28.25;14.05;;;11.60;99.90;;;;;;5026999;28;20062;-60
2023/02/15 11:41:13;;;;;;;24.13;13.18;;;11.70;99.90;;;;;;5009622;28;20420;-61
2023/02/15 11:43:43;;;;;;;23.60;12.80;;;11.70;99.90;;;;;;4993689;28;20046;-60
2023/02/15 11:46:11;;;;;;;25.15;12.85;;;11.90;99.90;;;;;;5009895;28;20132;-60
2023/02/15 11:48:38;;;;;;;24.63;12.68;;;11.90;99.90;;;;;;5009199;28;20804;-60
2023/02/15 11:51:05;;;;;;;29.25;13.75;;;12.00;99.90;;;;;;5026707;28;20075;-60
2023/02/15 11:53:33;;;;;;;24.60;13.02;;;12.10;99.90;;;;;;5026657;28;20064;-60
2023/02/15 11:56:00;;;;;;;28.90;12.50;;;12.20;99.90;;;;;;5026690;28;20144;-60
2023/02/15 11:58:55;;;;;;;30.15;13.18;;;12.30;99.90;;;;;;5009348;28;20041;-59
2023/02/15 12:01:32;;;;;;;20.92;12.23;;;12.40;99.90;;;;;;5024502;28;20143;-60
2023/02/15 12:04:15;;;;;;;22.88;12.13;;;12.50;99.90;;;;;;5009031;28;20068;-60
2023/02/15 12:07:02;;;;;;;34.33;13.60;;;12.60;99.90;;;;;;5004452;28;20042;-60
2023/02/15 12:09:46;;;;;;;23.50;13.48;;;12.60;99.90;;;;;;5026276;28;20042;-60
2023/02/15 12:12:23;;;;;;;18.97;11.03;;;12.70;99.90;;;;;;5009287;28;20141;-60
2023/02/15 12:14:55;;;;;;;20.15;10.95;;;12.80;99.90;;;;;;5026746;28;20523;-61
2023/02/15 12:17:29;;;;;;;43.47;11.20;;;12.80;99.90;;;;;;5026914;28;20041;-60
2023/02/15 12:19:57;;;;;;;28.67;10.85;;;12.90;99.90;;;;;;5008634;28;20099;-59
2023/02/15 12:22:32;;;;;;;20.77;9.88;;;12.90;99.90;;;;;;4973643;28;20136;-59
2023/02/15 12:25:00;;;;;;;28.60;9.88;;;12.90;99.90;;;;;;5009021;28;20587;-57
2023/02/15 12:27:31;;;;;;;22.77;10.18;;;12.90;99.90;;;;;;5027174;28;20663;-57
2023/02/15 12:30:25;;;;;;;30.98;10.00;;;13.00;99.90;;;;;;4975388;28;20146;-60
2023/02/15 12:32:54;;;;;;;24.77;12.05;;;13.00;99.90;;;;;;4990857;28;20160;-59
2023/02/15 12:35:31;;;;;;;26.33;10.45;;;13.00;99.90;;;;;;5026493;28;20041;-60
2023/02/15 12:38:21;;;;;;;21.65;10.68;;;13.00;99.90;;;;;;4992789;28;20045;-59
2023/02/15 12:40:59;;;;;;;19.88;9.68;;;13.00;99.90;;;;;;5011445;28;20045;-59
2023/02/15 12:43:36;;;;;;;17.98;10.63;;;13.10;99.90;;;;;;5009701;28;20145;-60
2023/02/15 12:46:22;;;;;;;31.85;12.52;;;13.10;99.90;;;;;;5004686;28;20049;-60
2023/02/15 12:49:14;;;;;;;20.38;10.13;;;13.20;99.90;;;;;;5026596;28;20056;-59
2023/02/15 12:51:51;;;;;;;22.80;8.43;;;13.20;99.90;;;;;;5026345;28;20196;-59
2023/02/15 12:54:41;;;;;;;17.35;9.00;;;13.30;99.90;;;;;;5026491;28;20059;-60
2023/02/15 12:57:32;;;;;;;19.33;9.75;;;13.30;99.90;;;;;;4991217;28;20054;-60
2023/02/15 13:00:00;;;;;;;20.40;8.63;;;13.40;99.90;;;;;;5011538;28;20491;-60
2023/02/15 13:02:33;;;;;;;23.02;10.52;;;13.40;99.90;;;;;;5008713;28;20060;-60
2023/02/15 13:05:23;;;;;;;20.55;9.27;;;13.50;99.90;;;;;;5010096;28;20528;-59
2023/02/15 13:07:54;;;;;;;22.05;9.57;;;13.50;99.90;;;;;;5026140;28;20133;-59
2023/02/15 13:10:29;;;;;;;20.23;8.25;;;13.60;99.90;;;;;;5009363;28;20136;-59
2023/02/15 13:12:57;;;;;;;22.05;9.95;;;13.60;99.90;;;;;;5010978;28;20051;-59
2023/02/15 13:15:41;;;;;;;22.77;8.68;;;13.60;99.90;;;;;;5012459;28;20056;-59
2023/02/15 13:18:38;;;;;;;24.55;7.97;;;13.70;99.90;;;;;;5028876;28;20054;-58
2023/02/15 13:21:25;;;;;;;28.25;7.65;;;13.70;99.90;;;;;;5012270;28;20136;-59
2023/02/15 13:23:56;;;;;;;18.60;8.80;;;13.70;99.90;;;;;;5029950;28;20676;-59
2023/02/15 13:26:26;;;;;;;24.20;8.27;;;13.80;99.90;;;;;;5011774;28;20045;-58
2023/02/15 13:28:55;;;;;;;26.73;8.77;;;13.80;99.90;;;;;;5011969;28;20294;-57
2023/02/15 13:31:25;;;;;;;27.13;9.13;;;13.90;99.90;;;;;;4996304;28;20783;-59